Time;durP1;ratioP1;P1;durP2;ratioP2;P2;SDS_P1;SDS_P2;PMS_P1;PMS_P2;Temp;Humidity;BMP_temperature;BMP_pressure;BME280_temperature;BME280_humidity;BME280_pressure;Samples;Min_cycle;Max_cycle;Signal;HPM_P1;HPM_P2
2023/07/17 00:00:10;;;;;;;;;3.00;2.00;;;;;25.32;36.59;101327.31;5015653;28;45259;-48
2023/07/17 00:02:35;;;;;;;;;1.50;1.00;;;;;25.31;36.64;101323.78;5015856;28;45516;-45
2023/07/17 00:05:01;;;;;;;;;3.00;2.00;;;;;25.30;36.81;101324.75;5015805;28;45388;-41
2023/07/17 00:07:26;;;;;;;;;1.00;1.00;;;;;25.29;36.51;101328.38;5015399;28;45897;-47
2023/07/17 00:09:51;;;;;;;;;1.50;1.00;;;;;25.29;36.80;101323.06;5015500;27;45382;-45
2023/07/17 00:12:17;;;;;;;;;1.50;1.50;;;;;25.28;37.33;101325.81;5013859;28;59361;-43
2023/07/17 00:14:42;;;;;;;;;3.25;2.25;;;;;25.28;36.88;101325.81;5015583;27;45535;-44
2023/07/17 00:17:08;;;;;;;;;2.25;2.25;;;;;25.29;37.20;101328.38;5015071;28;54303;-42
2023/07/17 00:19:33;;;;;;;;;5.00;1.75;;;;;25.27;36.89;101324.97;5014167;28;45574;-48
2023/07/17 00:21:58;;;;;;;;;2.00;2.00;;;;;25.27;37.51;101321.47;5015373;28;45395;-44
2023/07/17 00:24:23;;;;;;;;;2.00;2.00;;;;;25.26;36.94;101314.44;5014980;28;53428;-42
2023/07/17 00:26:49;;;;;;;;;3.25;2.00;;;;;25.27;37.10;101319.66;5015455;28;45420;-48
2023/07/17 00:29:28;;;;;;;;;3.00;3.00;;;;;25.27;37.47;101319.66;5014002;28;45451;-46
2023/07/17 00:31:54;;;;;;;;;3.00;1.75;;;;;25.26;37.11;101323.28;5015185;28;45262;-48
2023/07/17 00:34:20;;;;;;;;;1.75;1.00;;;;;25.27;36.89;101318.81;5014429;27;45335;-49
2023/07/17 00:36:46;;;;;;;;;3.00;2.00;;;;;25.27;36.85;101319.66;5015040;28;46035;-43
2023/07/17 00:39:14;;;;;;;;;4.00;3.00;;;;;25.26;36.84;101317.97;5014941;28;45799;-45
2023/07/17 00:41:39;;;;;;;;;3.75;2.25;;;;;25.26;36.79;101317.97;5014768;28;45381;-42
2023/07/17 00:44:05;;;;;;;;;4.00;2.00;;;;;25.27;37.22;101329.41;5015492;28;45425;-45
2023/07/17 00:46:34;;;;;;;;;0.50;0.50;;;;;25.27;37.48;101324.13;5014889;27;46237;-42
2023/07/17 00:49:05;;;;;;;;;4.50;1.75;;;;;25.27;36.77;101330.28;5015092;28;45490;-44
2023/07/17 00:51:31;;;;;;;;;2.50;1.75;;;;;25.29;36.99;101332.81;5015025;28;45399;-45
2023/07/17 00:53:57;;;;;;;;;4.50;1.50;;;;;25.29;36.86;101333.69;5015038;27;45471;-51
2023/07/17 00:56:25;;;;;;;;;2.00;2.00;;;;;25.30;36.84;101329.22;5015546;27;46027;-44
2023/07/17 00:58:52;;;;;;;;;2.00;2.00;;;;;25.30;36.87;101332.69;5015350;28;45770;-42
2023/07/17 01:01:17;;;;;;;;;2.25;1.25;;;;;25.31;36.77;101328.25;5013782;28;45379;-51
2023/07/17 01:03:43;;;;;;;;;1.00;0.50;;;;;25.31;37.34;101337.06;5015134;28;45583;-46
2023/07/17 01:06:08;;;;;;;;;3.75;2.00;;;;;25.30;36.70;101335.34;5014969;28;46037;-49
2023/07/17 01:08:34;;;;;;;;;1.00;1.00;;;;;25.31;36.94;101337.06;5014255;28;57743;-41
2023/07/17 01:10:59;;;;;;;;;1.00;1.00;;;;;25.32;37.01;101348.53;5014774;28;45420;-42
2023/07/17 01:13:24;;;;;;;;;1.75;1.00;;;;;25.30;37.00;101340.66;5015027;28;45505;-43
2023/07/17 01:15:50;;;;;;;;;1.50;1.50;;;;;25.30;36.97;101342.47;5014626;27;50546;-43
2023/07/17 01:18:15;;;;;;;;;1.75;1.00;;;;;25.31;36.75;101345.03;5014678;27;45302;-45
2023/07/17 01:20:41;;;;;;;;;2.00;2.00;;;;;25.31;37.38;101342.38;5014674;28;45348;-46
2023/07/17 01:23:07;;;;;;;;;2.00;2.00;;;;;25.31;37.29;101342.38;5014827;28;45643;-46
2023/07/17 01:25:33;;;;;;;;;1.50;1.50;;;;;25.32;37.30;101349.38;5014494;28;46042;-44
2023/07/17 01:27:59;;;;;;;;;3.00;2.00;;;;;25.31;36.98;101345.03;5014561;27;45303;-49
2023/07/17 01:30:24;;;;;;;;;2.00;2.00;;;;;25.32;37.25;101346.72;5014996;28;45396;-46
2023/07/17 01:32:50;;;;;;;;;1.00;1.00;;;;;25.32;37.11;101352.03;5013567;28;45538;-45
2023/07/17 01:35:15;;;;;;;;;3.75;1.50;;;;;25.31;37.01;101346.84;5013909;28;45989;-44
2023/07/17 01:37:42;;;;;;;;;1.00;1.00;;;;;25.31;37.19;101347.66;5013027;27;46116;-48
2023/07/17 01:40:09;;;;;;;;;1.00;1.00;;;;;25.32;36.67;101348.53;5014674;28;45356;-42
2023/07/17 01:42:35;;;;;;;;;2.00;1.00;;;;;25.31;36.83;101346.84;5014637;28;45285;-45
2023/07/17 01:45:01;;;;;;;;;2.00;1.75;;;;;25.28;36.84;101345.25;5014300;28;45378;-41
2023/07/17 01:47:26;;;;;;;;;1.00;1.00;;;;;25.31;37.40;101352.97;5014411;28;45442;-42
2023/07/17 01:49:52;;;;;;;;;2.50;1.75;;;;;25.31;37.27;101347.66;5014824;28;45496;-43
2023/07/17 01:52:17;;;;;;;;;2.50;1.75;;;;;25.31;37.01;101346.84;5014480;28;45345;-46
2023/07/17 01:54:43;;;;;;;;;1.00;1.00;;;;;25.31;36.95;101352.16;5013884;28;46285;-44
2023/07/17 01:57:09;;;;;;;;;3.00;1.00;;;;;25.32;37.21;101352.03;5014206;28;45244;-44
2023/07/17 01:59:34;;;;;;;;;1.50;0.50;;;;;25.31;37.34;101349.50;5014362;28;45370;-45
2023/07/17 02:02:00;;;;;;;;;1.00;1.00;;;;;25.29;36.87;101343.44;5014506;28;45550;-47
2023/07/17 02:04:26;;;;;;;;;1.75;1.75;;;;;25.29;36.96;101349.59;5013713;28;47032;-46
2023/07/17 02:06:51;;;;;;;;;4.50;2.00;;;;;25.30;36.74;101353.94;5014023;28;45514;-48
2023/07/17 02:09:16;;;;;;;;;1.00;1.00;;;;;25.30;37.02;101345.13;5014189;28;45320;-46
2023/07/17 02:11:41;;;;;;;;;1.00;1.00;;;;;25.30;36.94;101358.41;5014331;27;45442;-45
2023/07/17 02:14:07;;;;;;;;;1.00;0.75;;;;;25.28;36.93;101355.00;5013861;28;46273;-43
2023/07/17 02:16:32;;;;;;;;;2.00;1.00;;;;;25.30;36.88;101355.75;5013921;27;45436;-43
2023/07/17 02:18:58;;;;;;;;;1.50;1.50;;;;;25.28;36.76;101353.22;5014482;28;45397;-43
2023/07/17 02:21:24;;;;;;;;;2.00;1.00;;;;;25.29;37.00;101359.34;5014389;28;45313;-41
2023/07/17 02:23:49;;;;;;;;;1.50;1.00;;;;;25.29;36.70;101354.91;5013710;28;46339;-46
2023/07/17 02:26:14;;;;;;;;;1.00;1.00;;;;;25.29;36.80;101354.91;5013425;27;53162;-43
2023/07/17 02:28:40;;;;;;;;;3.50;2.00;;;;;25.27;37.02;101356.81;5013233;28;58410;-43
2023/07/17 02:31:05;;;;;;;;;2.00;1.25;;;;;25.28;36.52;101362.97;5014026;28;45370;-42
2023/07/17 02:33:30;;;;;;;;;3.00;1.00;;;;;25.26;36.54;101356.91;5013715;27;46393;-43
2023/07/17 02:35:56;;;;;;;;;1.00;1.00;;;;;25.27;36.84;101361.25;5013696;28;49134;-41
2023/07/17 02:38:21;;;;;;;;;1.50;1.00;;;;;25.27;37.29;101362.13;5013785;28;45325;-43
2023/07/17 02:40:46;;;;;;;;;1.00;1.00;;;;;25.25;36.54;101357.84;5013938;27;45197;-45
2023/07/17 02:43:12;;;;;;;;;3.00;1.50;;;;;25.27;36.65;101362.13;5013615;27;45223;-42
2023/07/17 02:45:37;;;;;;;;;2.00;2.00;;;;;25.26;36.85;101362.19;5013763;28;45325;-49
2023/07/17 02:48:03;;;;;;;;;1.50;1.50;;;;;25.26;36.96;101373.69;5013708;27;45231;-47
2023/07/17 02:50:29;;;;;;;;;1.00;1.00;;;;;25.25;36.55;101363.16;5014138;28;45322;-49
2023/07/17 02:52:55;;;;;;;;;1.25;1.25;;;;;25.24;37.20;101364.97;5013638;28;45425;-49
2023/07/17 02:55:24;;;;;;;;;1.00;1.00;;;;;25.25;36.75;101373.75;5013156;27;45214;-44
2023/07/17 02:57:49;;;;;;;;;1.25;1.25;;;;;25.25;37.36;101374.63;5012275;28;45275;-44
2023/07/17 03:00:15;;;;;;;;;2.25;1.00;;;;;25.24;36.91;101372.94;5013631;27;45385;-43
2023/07/17 03:02:42;;;;;;;;;3.50;1.00;;;;;25.24;36.61;101375.59;5013330;28;45875;-43
2023/07/17 03:05:09;;;;;;;;;1.75;1.75;;;;;25.23;36.93;101371.22;5013000;28;45422;-49
2023/07/17 03:07:43;;;;;;;;;1.00;1.00;;;;;25.24;36.77;101380.06;5013411;27;45222;-48
2023/07/17 03:10:09;;;;;;;;;3.25;1.25;;;;;25.21;37.05;101373.13;5013485;27;45407;-44
2023/07/17 03:12:34;;;;;;;;;3.00;2.00;;;;;25.21;36.92;101378.44;5013040;28;45978;-46
2023/07/17 03:15:00;;;;;;;;;3.00;1.75;;;;;25.21;37.42;101383.75;5012201;28;45285;-41
2023/07/17 03:17:25;;;;;;;;;1.50;1.50;;;;;25.20;37.07;101375.88;5016267;27;45351;-43
2023/07/17 03:19:51;;;;;;;;;2.00;2.00;;;;;25.20;37.08;101375.88;5016423;27;45218;-42
2023/07/17 03:22:17;;;;;;;;;1.00;1.00;;;;;25.16;37.39;101375.25;5016092;28;51942;-43
2023/07/17 03:24:42;;;;;;;;;1.75;1.75;;;;;25.16;37.25;101381.41;5016052;27;45438;-42
2023/07/17 03:27:07;;;;;;;;;2.25;1.00;;;;;25.16;37.15;101383.22;5016252;28;45254;-42
2023/07/17 03:29:32;;;;;;;;;1.00;1.00;;;;;25.16;37.31;101381.41;5015767;28;50799;-44
2023/07/17 03:31:58;;;;;;;;;1.00;1.00;;;;;25.14;36.84;101385.94;5016142;27;45483;-45
2023/07/17 03:34:23;;;;;;;;;1.00;1.00;;;;;25.15;36.93;101379.69;5014602;28;45282;-44
2023/07/17 03:36:48;;;;;;;;;3.00;2.00;;;;;25.16;37.30;101385.88;5015987;27;45365;-42
2023/07/17 03:39:14;;;;;;;;;2.00;1.75;;;;;25.14;37.22;101387.75;5016152;27;45263;-44
2023/07/17 03:41:39;;;;;;;;;2.00;2.00;;;;;25.14;37.49;101388.59;5015218;28;63404;-47
2023/07/17 03:44:05;;;;;;;;;1.50;1.00;;;;;25.15;37.03;101400.06;5014097;28;58341;-44
2023/07/17 03:46:31;;;;;;;;;1.50;1.00;;;;;25.14;36.95;101403.69;5016389;28;45407;-45
2023/07/17 03:48:56;;;;;;;;;2.00;1.00;;;;;25.13;37.04;101396.66;5015974;28;45280;-42
2023/07/17 03:51:22;;;;;;;;;0.50;0.50;;;;;25.12;37.34;101398.47;5015684;28;45930;-42
2023/07/17 03:53:50;;;;;;;;;1.50;1.50;;;;;25.12;37.44;101400.28;5015473;28;45431;-43
2023/07/17 03:56:15;;;;;;;;;1.00;1.00;;;;;25.09;37.25;101395.16;5015800;28;45227;-44
2023/07/17 03:58:41;;;;;;;;;2.75;1.00;;;;;25.08;37.21;101409.41;5016017;28;45218;-40
2023/07/17 04:01:06;;;;;;;;;1.00;1.00;;;;;25.06;37.23;101412.13;5015576;27;46264;-46
2023/07/17 04:03:31;;;;;;;;;1.75;1.00;;;;;25.07;36.74;101423.59;5015355;28;50317;-46
2023/07/17 04:05:57;;;;;;;;;1.00;1.00;;;;;25.06;37.00;101412.13;5015642;28;45412;-45
2023/07/17 04:08:22;;;;;;;;;2.00;2.00;;;;;25.07;36.74;101418.31;5015784;28;45457;-41
2023/07/17 04:10:48;;;;;;;;;2.50;2.00;;;;;25.06;36.65;101413.94;5015414;28;47326;-43
2023/07/17 04:13:14;;;;;;;;;1.00;1.00;;;;;25.07;37.41;101415.66;5014241;28;45414;-43
2023/07/17 04:15:41;;;;;;;;;0.75;0.00;;;;;25.07;36.87;101413.00;5015766;28;45569;-46
2023/07/17 04:18:06;;;;;;;;;1.00;1.00;;;;;25.06;36.72;101416.59;5014480;27;45557;-42
2023/07/17 04:20:32;;;;;;;;;1.50;1.50;;;;;25.07;37.15;101418.31;5015677;28;46424;-42
2023/07/17 04:22:58;;;;;;;;;0.50;0.50;;;;;25.07;36.78;101411.19;5015636;28;45930;-45
2023/07/17 04:25:23;;;;;;;;;1.75;1.00;;;;;25.06;37.21;101425.41;5015541;28;45275;-40
2023/07/17 04:27:48;;;;;;;;;1.50;0.50;;;;;25.03;36.69;101417.63;5015190;28;45446;-45
2023/07/17 04:30:14;;;;;;;;;1.50;1.00;;;;;25.04;36.58;101429.94;5015134;28;46034;-45
2023/07/17 04:32:39;;;;;;;;;0.50;0.50;;;;;25.03;36.58;101430.88;5014740;28;57097;-43
2023/07/17 04:35:05;;;;;;;;;1.00;1.00;;;;;25.00;36.65;101421.34;5015644;27;45170;-43
2023/07/17 04:37:31;;;;;;;;;1.00;1.00;;;;;25.02;37.31;101434.53;5016051;28;45324;-44
2023/07/17 04:39:56;;;;;;;;;1.00;1.00;;;;;25.00;37.20;101434.59;5014744;28;60236;-44
2023/07/17 04:42:21;;;;;;;;;1.00;1.00;;;;;24.99;37.00;101432.91;5015175;28;45495;-44
2023/07/17 04:44:47;;;;;;;;;1.00;1.00;;;;;24.97;36.59;101440.09;5015261;28;45423;-42
2023/07/17 04:47:12;;;;;;;;;0.75;0.25;;;;;24.96;37.18;101437.56;5015296;28;45308;-41
2023/07/17 04:49:37;;;;;;;;;1.00;1.00;;;;;24.96;37.22;101433.13;5015067;28;46004;-39
2023/07/17 04:52:03;;;;;;;;;0.00;0.00;;;;;24.95;36.96;101430.53;5015278;28;45460;-41
2023/07/17 04:54:28;;;;;;;;;2.00;0.50;;;;;24.95;37.41;101434.06;5014846;27;45238;-41
2023/07/17 04:56:54;;;;;;;;;1.00;0.00;;;;;24.94;36.85;101434.16;5015240;28;45281;-39
2023/07/17 04:59:20;;;;;;;;;1.00;1.00;;;;;24.93;36.87;101433.31;5014856;28;46140;-43
2023/07/17 05:01:45;;;;;;;;;0.50;0.50;;;;;24.92;36.93;101436.91;5014744;27;45817;-40
2023/07/17 05:04:11;;;;;;;;;2.75;1.00;;;;;24.92;37.45;101438.69;5013734;27;45428;-41
2023/07/17 05:06:36;;;;;;;;;0.50;0.50;;;;;24.90;37.00;101438.81;5015555;27;45259;-40
2023/07/17 05:09:02;;;;;;;;;2.00;0.00;;;;;24.91;37.48;101437.84;5014748;28;46170;-40
2023/07/17 05:11:27;;;;;;;;;0.00;0.00;;;;;24.90;37.75;101444.09;5014805;28;45246;-40
2023/07/17 05:13:53;;;;;;;;;2.00;0.00;;;;;24.90;37.89;101445.91;5013727;28;45288;-43
2023/07/17 05:16:19;;;;;;;;;0.75;0.75;;;;;24.88;37.36;101446.00;5014845;28;45343;-46
2023/07/17 05:18:44;;;;;;;;;0.75;0.00;;;;;24.88;37.95;101451.31;5013239;27;47883;-46
2023/07/17 05:21:09;;;;;;;;;0.75;0.75;;;;;24.88;37.93;101446.00;5014524;27;46579;-47
2023/07/17 05:23:35;;;;;;;;;1.00;1.00;;;;;24.90;37.54;101453.88;4997305;28;45315;-50
2023/07/17 05:26:01;;;;;;;;;2.00;1.00;;;;;24.90;37.36;101457.38;5014762;28;45265;-44
2023/07/17 05:28:30;;;;;;;;;1.00;0.50;;;;;24.92;37.95;101454.59;5014543;28;46251;-46
2023/07/17 05:30:56;;;;;;;;;2.00;1.00;;;;;24.91;37.23;101456.41;5014397;28;45414;-44
2023/07/17 05:33:23;;;;;;;;;1.00;1.00;;;;;24.91;37.36;101456.41;5014643;28;45241;-47
2023/07/17 05:35:49;;;;;;;;;1.00;0.75;;;;;24.90;37.10;101460.00;5014744;28;45475;-40
2023/07/17 05:38:14;;;;;;;;;0.25;0.25;;;;;24.91;37.56;101455.56;5013401;28;45598;-43
2023/07/17 05:40:40;;;;;;;;;0.00;0.00;;;;;24.89;37.59;101455.66;5014220;28;58200;-41
2023/07/17 05:43:06;;;;;;;;;1.00;1.00;;;;;24.91;37.63;101460.88;5014812;27;45270;-42
2023/07/17 05:45:32;;;;;;;;;1.00;1.00;;;;;24.91;37.29;101463.53;5013308;28;45633;-43
2023/07/17 05:47:57;;;;;;;;;0.50;0.00;;;;;24.91;37.13;101467.03;5014301;28;45444;-42
2023/07/17 05:50:22;;;;;;;;;0.00;0.00;;;;;24.90;37.33;101465.31;5013140;27;45402;-42
2023/07/17 05:52:49;;;;;;;;;0.00;0.00;;;;;24.92;37.49;101470.50;5014495;28;45440;-41
2023/07/17 05:55:14;;;;;;;;;0.50;0.50;;;;;24.91;37.10;101474.97;5014411;28;45467;-44
2023/07/17 05:57:40;;;;;;;;;1.50;1.00;;;;;24.91;37.39;101474.97;5014394;28;46134;-40
2023/07/17 06:00:10;;;;;;;;;0.25;0.25;;;;;24.91;36.87;101482.94;5013195;28;45218;-43
2023/07/17 06:02:35;;;;;;;;;1.00;1.00;;;;;24.92;37.10;101484.63;5013062;27;45253;-42
2023/07/17 06:05:00;;;;;;;;;1.00;1.00;;;;;24.92;37.29;101486.41;5013868;28;51791;-42
2023/07/17 06:07:26;;;;;;;;;1.00;1.00;;;;;24.92;37.50;101495.25;5014069;28;45360;-41
2023/07/17 06:09:51;;;;;;;;;1.50;1.00;;;;;24.92;37.06;101494.38;5014269;28;45586;-41
2023/07/17 06:12:16;;;;;;;;;0.00;0.00;;;;;24.92;37.37;101499.69;5014240;28;45660;-41
2023/07/17 06:14:41;;;;;;;;;2.00;0.50;;;;;24.92;37.35;101499.69;5013847;27;45572;-41
2023/07/17 06:17:07;;;;;;;;;1.00;1.00;;;;;24.91;37.44;101492.69;5014271;27;46566;-41
2023/07/17 06:19:32;;;;;;;;;1.00;1.00;;;;;24.90;37.60;101502.44;5014003;28;45307;-42
2023/07/17 06:21:57;;;;;;;;;0.00;0.00;;;;;24.90;37.11;101502.44;5014029;27;45311;-43
2023/07/17 06:24:23;;;;;;;;;0.75;0.75;;;;;24.92;37.63;101504.97;5014359;28;45364;-42
2023/07/17 06:26:48;;;;;;;;;1.00;1.00;;;;;24.93;37.50;101506.69;5013780;28;46095;-43
2023/07/17 06:29:13;;;;;;;;;1.75;1.00;;;;;24.91;37.61;101504.16;5013354;28;56076;-43
2023/07/17 06:31:39;;;;;;;;;1.25;1.00;;;;;24.91;37.50;101509.44;5014201;27;45384;-47
2023/07/17 06:34:05;;;;;;;;;1.25;1.00;;;;;24.92;37.18;101510.28;5014044;27;45464;-46
2023/07/17 06:36:30;;;;;;;;;3.00;1.00;;;;;24.92;37.48;101504.97;5013680;28;46607;-47
2023/07/17 06:38:56;;;;;;;;;2.50;1.00;;;;;24.92;36.92;101502.31;5013740;28;45342;-51
2023/07/17 06:41:21;;;;;;;;;1.00;1.00;;;;;24.92;36.97;101495.25;5013795;27;45431;-47
2023/07/17 06:43:46;;;;;;;;;0.75;0.75;;;;;24.90;37.56;101494.47;5014054;28;45476;-44
2023/07/17 06:46:12;;;;;;;;;1.00;1.00;;;;;24.91;37.29;101504.16;5013794;28;45321;-45
2023/07/17 06:48:37;;;;;;;;;2.00;1.75;;;;;24.91;37.61;101506.78;5013457;28;45393;-47
2023/07/17 06:51:04;;;;;;;;;1.00;1.00;;;;;24.91;37.18;101511.25;5013314;27;45428;-52
2023/07/17 06:53:30;;;;;;;;;1.50;1.00;;;;;24.91;37.00;101509.44;5012405;27;45606;-44
2023/07/17 06:56:03;;;;;;;;;1.00;1.00;;;;;24.91;37.20;101512.09;5013254;28;45213;-50
2023/07/17 06:58:28;;;;;;;;;1.00;1.00;;;;;24.92;37.44;101519.09;5013389;28;45985;-52
2023/07/17 07:00:55;;;;;;;;;1.00;1.00;;;;;24.93;37.05;101520.81;5013579;28;45415;-47
2023/07/17 07:03:21;;;;;;;;;2.00;2.00;;;;;24.92;37.44;101521.75;5013486;27;45481;-45
2023/07/17 07:06:13;;;;;;;;;1.50;1.50;;;;;24.92;37.10;101527.06;5011955;27;45337;-44
2023/07/17 07:08:38;;;;;;;;;2.25;1.50;;;;;24.90;37.14;101523.66;5011095;28;45665;-40
2023/07/17 07:11:04;;;;;;;;;3.00;2.00;;;;;24.92;37.46;101529.72;5013193;28;45416;-41
2023/07/17 07:13:30;;;;;;;;;2.50;1.00;;;;;24.90;37.16;101522.81;5013556;27;45584;-43
2023/07/17 07:15:55;;;;;;;;;1.75;1.75;;;;;24.90;37.03;101528.94;5012820;28;46157;-45
2023/07/17 07:18:21;;;;;;;;;1.50;1.00;;;;;24.91;37.29;101529.81;5013117;28;45387;-44
2023/07/17 07:20:49;;;;;;;;;1.00;1.00;;;;;24.91;37.10;101527.16;5012117;27;45499;-45
2023/07/17 07:23:15;;;;;;;;;1.00;1.00;;;;;24.92;36.94;101523.53;5013557;28;45273;-43
2023/07/17 07:25:41;;;;;;;;;1.25;1.25;;;;;24.92;37.55;101528.84;5012915;28;46043;-43
2023/07/17 07:28:07;;;;;;;;;1.50;1.50;;;;;24.92;37.24;101521.75;5011591;28;45333;-42
2023/07/17 07:30:32;;;;;;;;;2.00;2.00;;;;;24.92;37.21;101520.88;5013096;27;45399;-43
2023/07/17 07:32:57;;;;;;;;;1.00;1.00;;;;;24.93;37.33;101536.72;5013231;28;45650;-42
2023/07/17 07:35:23;;;;;;;;;3.25;1.75;;;;;24.94;36.74;101534.91;5012618;28;46286;-45
2023/07/17 07:37:48;;;;;;;;;0.50;0.50;;;;;24.92;37.22;101529.72;5011795;28;45259;-48
2023/07/17 07:40:14;;;;;;;;;4.00;1.00;;;;;24.93;37.18;101543.81;5013120;28;45409;-41
2023/07/17 07:42:40;;;;;;;;;3.00;1.00;;;;;24.94;36.61;101535.78;5014452;27;45231;-44
2023/07/17 07:45:06;;;;;;;;;3.00;1.00;;;;;24.93;36.61;101542.03;5012509;28;46182;-44
2023/07/17 07:47:32;;;;;;;;;2.25;2.00;;;;;24.95;36.78;101544.56;5012631;27;45222;-45
2023/07/17 07:49:57;;;;;;;;;1.25;0.50;;;;;24.95;36.33;101548.09;5012696;28;45477;-42
2023/07/17 07:52:23;;;;;;;;;1.75;1.75;;;;;24.95;36.92;101552.53;5011450;27;45531;-45
2023/07/17 07:54:48;;;;;;;;;1.00;1.00;;;;;24.95;36.76;101550.75;5012184;28;45611;-40
2023/07/17 07:57:14;;;;;;;;;1.25;1.25;;;;;24.95;36.36;101548.09;5012667;28;45481;-42
2023/07/17 07:59:39;;;;;;;;;1.00;1.00;;;;;24.95;36.72;101542.78;5012628;28;45425;-42
2023/07/17 08:02:06;;;;;;;;;1.75;1.75;;;;;24.97;36.72;101550.63;5013800;28;45518;-42
2023/07/17 08:04:31;;;;;;;;;0.50;0.50;;;;;24.98;36.31;101553.19;5015482;28;46127;-42
2023/07/17 08:06:56;;;;;;;;;2.00;1.00;;;;;24.98;36.66;101549.69;5014876;28;65669;-42
2023/07/17 08:09:22;;;;;;;;;4.00;1.25;;;;;24.98;36.37;101553.19;5014150;28;45403;-44
2023/07/17 08:11:47;;;;;;;;;1.00;1.00;;;;;24.98;36.21;101552.34;5015995;27;45240;-42
2023/07/17 08:14:13;;;;;;;;;1.00;1.00;;;;;24.99;36.33;101554.88;5015329;27;46179;-40
2023/07/17 08:16:38;;;;;;;;;0.25;0.25;;;;;24.98;36.10;101553.19;5015397;28;45774;-47
2023/07/17 08:19:03;;;;;;;;;2.00;2.00;;;;;24.96;36.44;101552.44;5015633;28;45708;-42
2023/07/17 08:21:29;;;;;;;;;2.00;2.00;;;;;24.97;36.00;101559.44;5015703;28;45304;-45
2023/07/17 08:23:54;;;;;;;;;1.00;1.00;;;;;24.98;36.08;101569.09;5015078;27;45372;-41
2023/07/17 08:26:19;;;;;;;;;1.00;1.00;;;;;24.99;36.20;101560.19;5015040;27;45301;-42
2023/07/17 08:28:45;;;;;;;;;2.00;0.50;;;;;25.00;36.08;101571.66;5015722;27;45338;-42
2023/07/17 08:31:10;;;;;;;;;1.00;1.00;;;;;24.98;36.47;101566.44;5015471;28;45155;-41
2023/07/17 08:33:36;;;;;;;;;1.25;1.00;;;;;24.98;36.60;101569.09;5015023;27;46278;-42
2023/07/17 21:54:06;;;;;;;;;4.00;4.00;;;;;25.50;33.32;101670.25;5266831;22;45616;-36
2023/07/17 21:56:32;;;;;;;;;4.25;3.00;;;;;25.47;33.07;101663.31;5034186;28;46072;-34
2023/07/17 21:58:57;;;;;;;;;3.00;3.00;;;;;25.49;33.41;101662.38;5019734;28;45233;-37
2023/07/17 22:01:23;;;;;;;;;2.25;2.00;;;;;25.49;33.31;101668.56;5042821;28;44778;-38
2023/07/17 22:03:49;;;;;;;;;4.75;4.00;;;;;25.47;33.38;101670.44;5030904;28;45253;-37
2023/07/17 22:06:14;;;;;;;;;3.00;2.75;;;;;25.47;33.17;101671.28;5019393;28;52633;-37
2023/07/17 22:08:39;;;;;;;;;3.00;2.67;;;;;25.46;32.99;101672.25;5018290;28;64709;-35
2023/07/17 22:11:04;;;;;;;;;5.50;4.00;;;;;25.46;33.44;101679.34;5018796;28;45890;-35
2023/07/17 22:13:34;;;;;;;;;3.00;3.00;;;;;25.46;33.39;101682.88;5017341;28;45312;-36
2023/07/17 22:16:01;;;;;;;;;5.75;2.50;;;;;25.47;33.57;101683.72;5000124;28;48110;-35
2023/07/17 22:18:26;;;;;;;;;3.00;3.00;;;;;25.47;33.58;101678.41;5018285;28;45343;-36
2023/07/17 22:20:52;;;;;;;;;2.50;2.00;;;;;25.45;33.77;101675.00;5017821;28;45173;-34
2023/07/17 22:23:17;;;;;;;;;5.50;2.50;;;;;25.44;33.53;101683.91;5032245;28;44772;-36
2023/07/17 22:25:43;;;;;;;;;4.00;2.00;;;;;25.45;33.68;101685.59;5039521;28;64722;-37
2023/07/17 22:28:08;;;;;;;;;2.75;2.75;;;;;25.44;34.20;101689.19;5023568;28;45209;-36
2023/07/17 22:30:33;;;;;;;;;5.25;2.25;;;;;25.45;33.74;101677.66;5018136;28;45421;-35
2023/07/17 22:32:59;;;;;;;;;4.00;2.00;;;;;25.43;34.06;101687.50;5017440;28;45627;-35
2023/07/17 22:35:24;;;;;;;;;3.50;3.50;;;;;25.44;34.25;101691.88;5017853;28;46326;-35
2023/07/17 22:37:49;;;;;;;;;3.75;2.50;;;;;25.45;33.78;101696.22;5035950;28;45223;-33
2023/07/17 22:40:15;;;;;;;;;1.00;1.00;;;;;25.43;34.28;101687.50;5029228;28;58638;-34
2023/07/17 22:42:40;;;;;;;;;3.00;3.00;;;;;25.41;34.10;101692.06;4999323;28;45569;-34
2023/07/17 22:45:06;;;;;;;;;2.00;2.00;;;;;25.41;34.79;101702.69;5037099;28;49866;-37
2023/07/17 22:47:31;;;;;;;;;1.00;0.00;;;;;25.41;33.98;101702.69;5031128;28;45738;-37
2023/07/17 22:49:57;;;;;;;;;2.00;2.00;;;;;25.38;34.79;101701.03;5018093;28;45429;-36
2023/07/17 22:52:22;;;;;;;;;4.00;3.75;;;;;25.39;34.05;101700.09;5017941;28;45376;-34
2023/07/17 22:54:49;;;;;;;;;1.75;1.75;;;;;25.39;34.22;101700.09;5017599;28;46005;-38
2023/07/17 22:57:14;;;;;;;;;2.75;1.50;;;;;25.41;34.62;101700.03;5017573;28;45285;-35
2023/07/17 22:59:39;;;;;;;;;2.25;2.25;;;;;25.35;34.51;101687.97;5018787;28;47929;-34
2023/07/17 23:02:05;;;;;;;;;1.75;1.75;;;;;25.39;34.64;101693.94;5028949;28;45349;-37
2023/07/17 23:04:31;;;;;;;;;1.00;1.00;;;;;25.39;34.67;101694.78;5028509;28;46115;-37
2023/07/17 23:06:56;;;;;;;;;3.00;1.00;;;;;25.38;34.99;101689.56;5033990;28;45616;-34
2023/07/17 23:09:22;;;;;;;;;2.00;2.00;;;;;25.37;35.09;101690.53;5011869;28;45328;-36
2023/07/17 23:11:47;;;;;;;;;2.50;2.00;;;;;25.36;35.13;101686.16;5027904;28;45352;-38
2023/07/17 23:14:12;;;;;;;;;2.00;1.00;;;;;25.38;34.73;101690.41;5021837;28;46293;-37
2023/07/17 23:16:38;;;;;;;;;4.50;2.00;;;;;25.38;34.83;101686.91;5019349;28;64070;-36
2023/07/17 23:19:04;;;;;;;;;1.50;1.00;;;;;25.37;35.22;101696.66;5000031;28;45299;-35
2023/07/17 23:21:31;;;;;;;;;4.50;3.00;;;;;25.35;34.80;101681.78;5018256;28;45217;-38
2023/07/17 23:23:56;;;;;;;;;2.00;2.00;;;;;25.36;35.43;101688.81;5019310;28;46267;-35
2023/07/17 23:26:23;;;;;;;;;1.00;1.00;;;;;25.35;35.17;101692.41;5022014;28;45336;-36
2023/07/17 23:28:49;;;;;;;;;1.50;1.50;;;;;25.34;34.70;101693.34;5024713;28;45320;-39
2023/07/17 23:31:18;;;;;;;;;2.00;2.00;;;;;25.32;35.37;101688.16;5023124;28;45302;-38
2023/07/17 23:33:46;;;;;;;;;1.75;1.75;;;;;25.32;35.25;101694.31;5009646;28;45354;-38
2023/07/17 23:36:15;;;;;;;;;1.00;1.00;;;;;25.32;35.27;101689.00;5027636;28;45374;-36
2023/07/17 23:38:41;;;;;;;;;1.50;1.00;;;;;25.30;35.24;101674.13;5003017;28;45356;-38
2023/07/17 23:41:07;;;;;;;;;1.00;1.00;;;;;25.28;34.90;101682.19;5023120;28;45666;-39
2023/07/17 23:43:33;;;;;;;;;3.25;1.00;;;;;25.31;35.29;101679.31;5023137;28;46018;-37
2023/07/17 23:45:59;;;;;;;;;2.00;2.00;;;;;25.31;35.11;101687.28;5027311;28;45581;-38
2023/07/17 23:48:25;;;;;;;;;2.00;2.00;;;;;25.27;35.31;101667.22;5029536;28;44699;-35
2023/07/17 23:50:51;;;;;;;;;2.25;2.00;;;;;25.30;35.25;101669.66;5031525;28;45217;-36
2023/07/17 23:53:17;;;;;;;;;3.00;1.25;;;;;25.32;35.12;101677.53;5039010;28;45235;-39
2023/07/17 23:55:42;;;;;;;;;2.50;2.00;;;;;25.31;35.08;101671.38;5037435;28;45830;-34
2023/07/17 23:58:08;;;;;;;;;3.00;1.00;;;;;25.32;35.50;101667.78;5021246;28;45281;-36
